createdAt,value
2022-12-18T00:01:25.718Z,101571.16
2022-12-18T00:03:54.663Z,101570.94
2022-12-18T00:06:23.355Z,101567.44
2022-12-18T00:08:51.932Z,101577.91
2022-12-18T00:11:21.647Z,101564.91
2022-12-18T00:13:51.328Z,101569.31
2022-12-18T00:16:21.911Z,101575.28
2022-12-18T00:18:52.227Z,101566.44
2022-12-18T00:21:21.624Z,101572.50
2022-12-18T00:23:50.707Z,101564.66
2022-12-18T00:26:20.982Z,101560.59
2022-12-18T00:28:49.347Z,101551.44
2022-12-18T00:31:20.684Z,101555.09
2022-12-18T00:33:49.076Z,101556.91
2022-12-18T00:36:25.286Z,101556.19
2022-12-18T00:38:53.483Z,101556.88
2022-12-18T00:41:35.536Z,101555.16
2022-12-18T00:44:03.443Z,101557.84
2022-12-18T00:46:31.292Z,101554.34
2022-12-18T00:48:59.067Z,101553.59
2022-12-18T00:51:28.599Z,101548.03
2022-12-18T00:53:56.517Z,101544.44
2022-12-18T00:56:24.639Z,101539.44
2022-12-18T00:58:52.904Z,101541.88
2022-12-18T01:01:21.607Z,101548.09
2022-12-18T01:03:49.573Z,101539.50
2022-12-18T01:06:18.848Z,101531.31
2022-12-18T01:08:48.054Z,101525.38
2022-12-18T01:11:19.044Z,101520.06
2022-12-18T01:13:46.932Z,101516.63
2022-12-18T01:16:15.728Z,101518.88
2022-12-18T01:18:43.775Z,101517.72
2022-12-18T01:21:13.306Z,101516.78
2022-12-18T01:23:41.596Z,101518.75
2022-12-18T01:26:13.243Z,101519.38
2022-12-18T01:28:41.809Z,101507.16
2022-12-18T01:31:15.303Z,101516.50
2022-12-18T01:33:42.952Z,101512.34
2022-12-18T01:36:16.159Z,101520.44
2022-12-18T01:38:44.047Z,101531.84
2022-12-18T01:41:13.823Z,101539.84
2022-12-18T01:43:50.608Z,101548.56
2022-12-18T01:46:20.218Z,101554.72
2022-12-18T01:48:52.392Z,101551.31
2022-12-18T01:51:20.551Z,101550.22
2022-12-18T01:53:49.751Z,101544.00
2022-12-18T01:56:20.883Z,101541.34
2022-12-18T01:58:56.223Z,101523.81
2022-12-18T02:01:25.038Z,101517.72
2022-12-18T02:03:53.640Z,101525.69
2022-12-18T02:06:27.966Z,101526.56
2022-12-18T02:09:05.986Z,101534.56
2022-12-18T02:11:44.499Z,101542.97
2022-12-18T02:14:21.204Z,101545.81
2022-12-18T02:16:55.669Z,101536.91
2022-12-18T02:19:41.780Z,101533.50
2022-12-18T02:22:23.272Z,101538.13
2022-12-18T02:25:01.903Z,101541.16
2022-12-18T02:27:34.016Z,101533.44
2022-12-18T02:30:03.552Z,101546.41
2022-12-18T02:32:36.064Z,101542.25
2022-12-18T02:35:06.940Z,101539.38
2022-12-18T02:37:36.737Z,101532.41
2022-12-18T02:40:07.093Z,101528.69
2022-12-18T02:42:36.256Z,101515.13
2022-12-18T02:45:04.116Z,101518.34
2022-12-18T02:47:34.728Z,101513.03
2022-12-18T02:50:12.725Z,101503.59
2022-12-18T02:52:48.020Z,101503.50
2022-12-18T02:55:27.584Z,101501.19
2022-12-18T02:58:00.588Z,101491.28
2022-12-18T03:00:36.077Z,101492.34
2022-12-18T03:03:09.978Z,101486.97
2022-12-18T03:05:43.583Z,101484.41
2022-12-18T03:08:16.416Z,101490.56
2022-12-18T03:10:50.572Z,101490.53
2022-12-18T03:13:25.668Z,101484.59
2022-12-18T03:15:56.977Z,101484.63
2022-12-18T03:18:28.083Z,101482.00
2022-12-18T03:21:00.508Z,101489.78
2022-12-18T03:23:34.389Z,101486.41
2022-12-18T03:26:07.730Z,101483.19
2022-12-18T03:28:40.997Z,101492.56
2022-12-18T03:31:11.872Z,101491.81
2022-12-18T03:33:46.282Z,101489.13
2022-12-18T03:36:14.236Z,101488.34
2022-12-18T03:38:42.019Z,101495.31
2022-12-18T03:41:18.020Z,101495.34
2022-12-18T03:43:54.224Z,101483.97
2022-12-18T03:46:29.944Z,101483.69
2022-12-18T03:49:03.647Z,101482.84
2022-12-18T03:51:36.984Z,101490.66
2022-12-18T03:54:07.591Z,101489.03
2022-12-18T03:56:39.892Z,101506.75
2022-12-18T03:59:12.196Z,101492.66
2022-12-18T04:01:43.921Z,101491.00
2022-12-18T04:04:13.961Z,101494.66
2022-12-18T04:06:43.203Z,101496.25
2022-12-18T04:09:11.770Z,101492.75
2022-12-18T04:11:39.506Z,101498.81
2022-12-18T04:14:07.708Z,101497.25
2022-12-18T04:16:36.878Z,101488.50
2022-12-18T04:19:05.306Z,101495.38
2022-12-18T04:21:33.111Z,101495.38
2022-12-18T04:24:00.910Z,101503.19
2022-12-18T04:26:28.647Z,101506.44
2022-12-18T04:28:56.509Z,101514.28
2022-12-18T04:31:24.320Z,101512.78
2022-12-18T04:33:53.703Z,101518.25
2022-12-18T04:36:21.534Z,101519.97
2022-12-18T04:38:49.350Z,101510.16
2022-12-18T04:41:17.144Z,101517.38
2022-12-18T04:43:44.894Z,101505.22
2022-12-18T04:46:12.777Z,101501.66
2022-12-18T04:48:40.639Z,101503.47
2022-12-18T04:51:09.870Z,101499.78
2022-12-18T04:53:37.848Z,101492.88
2022-12-18T04:56:08.127Z,101489.22
2022-12-18T04:58:35.911Z,101490.91
2022-12-18T05:01:04.284Z,101498.09
2022-12-18T05:03:32.513Z,101487.69
2022-12-18T05:06:00.276Z,101484.09
2022-12-18T05:08:29.607Z,101479.81
2022-12-18T05:11:01.751Z,101478.75
2022-12-18T05:13:29.853Z,101483.97
2022-12-18T05:15:58.057Z,101485.06
2022-12-18T05:18:26.265Z,101477.91
2022-12-18T05:20:54.969Z,101474.59
2022-12-18T05:23:24.921Z,101471.97
2022-12-18T05:25:55.577Z,101475.50
2022-12-18T05:28:24.678Z,101462.44
2022-12-18T05:30:52.936Z,101463.09
2022-12-18T05:33:20.824Z,101449.09
2022-12-18T05:35:53.089Z,101445.44
2022-12-18T05:38:21.159Z,101442.19
2022-12-18T05:40:49.974Z,101441.47
2022-12-18T05:43:21.512Z,101427.38
2022-12-18T05:45:50.448Z,101423.84
2022-12-18T05:48:18.723Z,101424.84
2022-12-18T05:50:47.966Z,101421.31
2022-12-18T05:53:17.167Z,101427.44
2022-12-18T05:55:45.908Z,101430.13
2022-12-18T05:58:15.278Z,101426.69
2022-12-18T06:00:46.985Z,101416.94
2022-12-18T06:03:15.978Z,101409.09
2022-12-18T06:05:45.401Z,101401.16
2022-12-18T06:08:14.129Z,101395.97
2022-12-18T06:10:42.863Z,101394.22
2022-12-18T06:13:10.671Z,101391.66
2022-12-18T06:15:38.913Z,101398.59
2022-12-18T06:18:08.086Z,101398.63
2022-12-18T06:20:37.563Z,101389.00
2022-12-18T06:23:05.780Z,101386.41
2022-12-18T06:25:33.907Z,101382.81
2022-12-18T06:28:01.779Z,101387.22
2022-12-18T06:30:29.604Z,101390.66
2022-12-18T06:32:57.671Z,101386.31
2022-12-18T06:35:26.800Z,101384.72
2022-12-18T06:37:54.627Z,101389.06
2022-12-18T06:40:22.988Z,101393.28
2022-12-18T06:42:51.929Z,101394.16
2022-12-18T06:45:19.776Z,101390.75
2022-12-18T06:47:47.703Z,101395.19
2022-12-18T06:50:15.810Z,101403.06
2022-12-18T06:52:45.071Z,101402.22
2022-12-18T06:55:13.467Z,101390.00
2022-12-18T06:57:41.264Z,101393.50
2022-12-18T07:00:10.164Z,101390.88
2022-12-18T07:02:38.079Z,101380.38
2022-12-18T07:05:10.684Z,101384.72
2022-12-18T07:07:39.050Z,101398.72
2022-12-18T07:10:08.789Z,101395.25
2022-12-18T07:12:36.692Z,101400.50
2022-12-18T07:15:05.031Z,101393.53
2022-12-18T07:17:32.753Z,101393.53
2022-12-18T07:20:00.488Z,101389.09
2022-12-18T07:22:28.379Z,101388.28
2022-12-18T07:24:56.306Z,101381.25
2022-12-18T07:27:25.476Z,101378.63
2022-12-18T07:29:53.233Z,101393.53
2022-12-18T07:32:21.098Z,101389.97
2022-12-18T07:34:48.880Z,101390.00
2022-12-18T07:37:16.696Z,101385.63
2022-12-18T07:39:44.423Z,101387.34
2022-12-18T07:42:29.390Z,101380.31
2022-12-18T07:44:58.555Z,101385.63
2022-12-18T07:47:26.656Z,101380.34
2022-12-18T07:49:55.023Z,101378.56
2022-12-18T07:52:26.112Z,101382.09
2022-12-18T07:54:54.268Z,101373.28
2022-12-18T07:57:48.971Z,101371.56
2022-12-18T08:00:13.246Z,101364.53
2022-12-18T08:02:41.283Z,101355.78
2022-12-18T08:05:10.807Z,101361.06
2022-12-18T08:07:38.624Z,101354.91
2022-12-18T08:10:07.454Z,101369.75
2022-12-18T08:12:35.220Z,101374.13
2022-12-18T08:15:03.059Z,101375.94
2022-12-18T08:17:32.632Z,101372.41
2022-12-18T08:20:00.493Z,101379.38
2022-12-18T08:22:28.365Z,101376.72
2022-12-18T08:24:56.165Z,101368.00
2022-12-18T08:27:30.947Z,101374.19
2022-12-18T08:29:59.099Z,101368.03
2022-12-18T08:32:27.764Z,101353.94
2022-12-18T08:34:56.951Z,101356.50
2022-12-18T08:37:24.861Z,101363.56
2022-12-18T08:39:52.732Z,101356.47
2022-12-18T08:42:37.993Z,101358.31
2022-12-18T08:45:06.439Z,101355.72
2022-12-18T08:47:34.195Z,101363.56
2022-12-18T08:50:03.325Z,101355.72
2022-12-18T08:52:33.468Z,101359.06
2022-12-18T08:55:01.306Z,101353.03
2022-12-18T08:57:29.086Z,101362.59
2022-12-18T08:59:56.797Z,101353.84
2022-12-18T09:02:24.683Z,101352.03
2022-12-18T09:04:57.146Z,101344.09
2022-12-18T09:07:26.875Z,101345.00
2022-12-18T09:09:54.609Z,101350.25
2022-12-18T09:12:22.325Z,101352.00
2022-12-18T09:14:50.512Z,101348.41
2022-12-18T09:17:18.359Z,101352.84
2022-12-18T09:19:46.185Z,101351.06
2022-12-18T09:22:13.932Z,101346.66
2022-12-18T09:24:43.153Z,101359.03
2022-12-18T09:27:10.865Z,101362.50
2022-12-18T09:29:38.647Z,101363.28
2022-12-18T09:32:07.052Z,101366.72
2022-12-18T09:34:34.999Z,101369.31
2022-12-18T09:37:03.122Z,101375.50
2022-12-18T09:39:30.964Z,101386.09
2022-12-18T09:42:00.835Z,101386.94
2022-12-18T09:44:31.901Z,101384.28
2022-12-18T09:47:10.461Z,101380.72
2022-12-18T09:49:42.716Z,101376.25
2022-12-18T09:52:17.680Z,101377.09
2022-12-18T09:54:50.825Z,101372.66
2022-12-18T09:57:23.734Z,101376.19
2022-12-18T09:59:57.052Z,101366.50
2022-12-18T10:02:27.247Z,101360.38
2022-12-18T10:05:07.013Z,101352.59
2022-12-18T10:07:44.979Z,101356.81
2022-12-18T10:10:22.265Z,101351.66
2022-12-18T10:13:04.329Z,101342.84
2022-12-18T10:15:38.381Z,101329.75
2022-12-18T10:18:17.389Z,101334.09
2022-12-18T10:20:52.757Z,101329.66
2022-12-18T10:23:28.839Z,101328.78
2022-12-18T10:26:03.396Z,101322.75
2022-12-18T10:28:35.259Z,101323.56
2022-12-18T10:31:03.168Z,101317.44
2022-12-18T10:33:33.190Z,101316.53
2022-12-18T10:36:01.877Z,101310.31
2022-12-18T10:38:30.861Z,101310.22
2022-12-18T10:41:00.974Z,101308.50
2022-12-18T10:43:31.375Z,101298.91
2022-12-18T10:46:16.808Z,101306.94
2022-12-18T10:48:56.245Z,101296.28
2022-12-18T10:51:27.017Z,101294.63
2022-12-18T10:53:58.834Z,101291.97
2022-12-18T10:56:29.164Z,101300.66
2022-12-18T10:59:03.068Z,101297.16
2022-12-18T11:01:49.138Z,101283.78
2022-12-18T11:04:21.593Z,101282.03
2022-12-18T11:07:01.649Z,101284.72
2022-12-18T11:09:32.527Z,101276.75
2022-12-18T11:12:02.949Z,101269.63
2022-12-18T11:14:34.680Z,101263.44
2022-12-18T11:17:25.441Z,101266.88
2022-12-18T11:19:56.137Z,101271.28
2022-12-18T11:22:27.457Z,101269.50
2022-12-18T11:25:29.985Z,101263.81
2022-12-18T11:27:51.564Z,101259.53
2022-12-18T11:30:25.020Z,101256.72
2022-12-18T11:32:57.809Z,101249.84
2022-12-18T11:35:35.299Z,101248.06
2022-12-18T11:38:08.757Z,101250.53
2022-12-18T11:40:41.229Z,101244.97
2022-12-18T11:43:16.306Z,101248.63
2022-12-18T11:45:51.640Z,101250.53
2022-12-18T11:48:25.636Z,101235.75
2022-12-18T11:50:55.332Z,101233.81
2022-12-18T11:53:23.657Z,101219.31
2022-12-18T11:56:10.337Z,101216.38
2022-12-18T11:58:48.712Z,101216.03
2022-12-18T12:01:43.891Z,101199.59
2022-12-18T12:04:47.145Z,101190.13
2022-12-18T12:07:26.180Z,101186.81
2022-12-18T12:10:06.098Z,101170.03
2022-12-18T12:12:49.538Z,101155.50
2022-12-18T12:15:29.691Z,101168.09
2022-12-18T12:18:11.275Z,101162.56
2022-12-18T12:20:52.500Z,101162.75
2022-12-18T12:23:29.463Z,101176.50
2022-12-18T12:26:02.130Z,101183.97
2022-12-18T12:28:54.377Z,101180.88
2022-12-18T12:31:36.229Z,101174.38
2022-12-18T12:34:15.172Z,101176.41
2022-12-18T12:37:01.753Z,101161.06
2022-12-18T12:39:32.597Z,101148.88
2022-12-18T12:42:19.041Z,101141.28
2022-12-18T12:44:56.396Z,101130.88
2022-12-18T12:47:29.826Z,101139.50
2022-12-18T12:50:00.304Z,101141.09
2022-12-18T12:52:36.898Z,101143.81
2022-12-18T12:55:14.616Z,101146.41
2022-12-18T12:57:47.928Z,101136.63
2022-12-18T13:00:20.221Z,101133.31
2022-12-18T13:02:58.848Z,101124.06
2022-12-18T13:05:34.017Z,101120.78
2022-12-18T13:08:08.012Z,101118.50
2022-12-18T13:10:37.880Z,101116.59
2022-12-18T13:13:09.261Z,101113.84
2022-12-18T13:15:44.208Z,101107.91
2022-12-18T13:18:16.932Z,101115.50
2022-12-18T13:20:53.099Z,101110.19
2022-12-18T13:23:33.069Z,101115.53
2022-12-18T13:26:02.056Z,101124.75
2022-12-18T13:28:53.886Z,101124.03
2022-12-18T13:32:02.998Z,101133.50
2022-12-18T13:37:43.941Z,101135.09
2022-12-18T13:40:57.463Z,101117.94
2022-12-18T13:43:35.120Z,101111.75
2022-12-18T13:46:19.044Z,101112.47
2022-12-18T13:48:54.211Z,101106.16
2022-12-18T13:51:23.637Z,101112.53
2022-12-18T13:53:53.960Z,101110.47
2022-12-18T13:56:26.072Z,101110.06
2022-12-18T13:59:16.571Z,101097.22
2022-12-18T14:01:46.471Z,101089.22
2022-12-18T14:04:20.578Z,101095.09
2022-12-18T14:06:48.970Z,101092.25
2022-12-18T14:09:21.710Z,101093.78
2022-12-18T14:11:50.626Z,101075.06
2022-12-18T14:14:21.584Z,101078.09
2022-12-18T14:16:49.579Z,101066.63
2022-12-18T14:19:19.906Z,101047.41
2022-12-18T14:21:49.022Z,101038.59
2022-12-18T14:24:19.699Z,101034.94
2022-12-18T14:26:49.616Z,101035.72
2022-12-18T14:29:26.158Z,101034.09
2022-12-18T14:32:16.582Z,101047.91
2022-12-18T14:34:45.291Z,101041.50
2022-12-18T14:37:15.046Z,101043.63
2022-12-18T14:39:42.905Z,101032.28
2022-12-18T14:42:13.404Z,101031.69
2022-12-18T14:45:05.207Z,101024.78
2022-12-18T14:47:30.350Z,101033.22
2022-12-18T14:49:58.141Z,101019.13
2022-12-18T14:52:33.888Z,101016.44
2022-12-18T14:55:01.757Z,101011.13
2022-12-18T14:57:37.333Z,101012.66
2022-12-18T15:00:18.247Z,101004.88
2022-12-18T15:02:48.104Z,101010.97
2022-12-18T15:05:21.469Z,101008.97
2022-12-18T15:07:52.690Z,101009.84
2022-12-18T15:10:23.096Z,101006.59
2022-12-18T15:12:52.924Z,101008.09
2022-12-18T15:15:50.673Z,101016.63
2022-12-18T15:18:22.164Z,101018.69
2022-12-18T15:20:52.527Z,101009.09
2022-12-18T15:23:23.667Z,101019.16
2022-12-18T15:25:58.118Z,101041.38
2022-12-18T15:28:28.576Z,101047.50
2022-12-18T15:31:21.250Z,101060.59
2022-12-18T15:34:04.136Z,101062.19
2022-12-18T15:36:32.415Z,101061.84
2022-12-18T15:39:05.168Z,101056.19
2022-12-18T15:41:36.507Z,101070.81
2022-12-18T15:44:04.697Z,101061.50
2022-12-18T15:46:33.908Z,101071.09
2022-12-18T15:49:02.906Z,101069.03
2022-12-18T15:51:34.551Z,101060.66
2022-12-18T15:54:05.183Z,101058.66
2022-12-18T15:56:50.476Z,101051.66
2022-12-18T15:59:20.382Z,101050.34
2022-12-18T16:01:51.415Z,101053.59
2022-12-18T16:04:21.584Z,101053.44
2022-12-18T16:09:37.144Z,101062.91
2022-12-18T16:12:05.926Z,101054.47
2022-12-18T16:14:34.244Z,101051.09
2022-12-18T16:17:05.596Z,101047.09
2022-12-18T16:19:33.421Z,101048.31
2022-12-18T16:22:01.192Z,101051.81
2022-12-18T16:24:30.818Z,101042.75
2022-12-18T16:27:00.180Z,101046.75
2022-12-18T16:29:29.463Z,101033.16
2022-12-18T16:31:58.115Z,101038.78
2022-12-18T16:34:29.612Z,101021.00
2022-12-18T16:37:04.918Z,101024.81
2022-12-18T16:39:34.913Z,101026.75
2022-12-18T16:42:06.006Z,101019.13
2022-12-18T16:44:34.410Z,101005.31
2022-12-18T16:47:03.067Z,101007.13
2022-12-18T16:49:32.434Z,101015.63
2022-12-18T16:52:00.216Z,101011.25
2022-12-18T16:54:30.406Z,101026.16
2022-12-18T16:56:58.562Z,101028.00
2022-12-18T16:59:27.373Z,101025.59
2022-12-18T17:01:57.366Z,101034.47
2022-12-18T17:04:25.352Z,101023.31
2022-12-18T17:06:54.565Z,101022.16
2022-12-18T17:09:25.069Z,101028.59
2022-12-18T17:11:53.803Z,101017.91
2022-12-18T17:14:23.453Z,101019.91
2022-12-18T17:17:19.260Z,101017.75
2022-12-18T17:19:40.981Z,101021.09
2022-12-18T17:22:10.144Z,101025.81
2022-12-18T17:24:37.994Z,101015.72
2022-12-18T17:27:06.013Z,101012.44
2022-12-18T17:29:33.888Z,101011.75
2022-12-18T17:32:01.704Z,101005.84
2022-12-18T17:34:29.970Z,100990.66
2022-12-18T17:36:58.402Z,100987.28
2022-12-18T17:39:28.721Z,101009.88
2022-12-18T17:41:56.769Z,101010.81
2022-12-18T17:44:24.560Z,101001.47
2022-12-18T17:46:52.349Z,100999.13
2022-12-18T17:49:20.239Z,100992.69
2022-12-18T17:51:48.065Z,100991.75
2022-12-18T17:54:15.965Z,100999.06
2022-12-18T17:56:45.728Z,101007.84
2022-12-18T17:59:14.381Z,101013.00
2022-12-18T18:01:45.089Z,101007.38
2022-12-18T18:04:13.612Z,101013.22
2022-12-18T18:06:41.480Z,101004.44
2022-12-18T18:09:16.023Z,101003.34
2022-12-18T18:12:03.973Z,100992.75
2022-12-18T18:14:32.234Z,100996.63
2022-12-18T18:17:02.842Z,100999.78
2022-12-18T18:19:34.497Z,101007.97
2022-12-18T18:22:03.066Z,100989.13
2022-12-18T18:24:31.755Z,100992.03
2022-12-18T18:27:01.077Z,100987.00
2022-12-18T18:29:30.325Z,100998.97
2022-12-18T18:31:58.415Z,100996.16
2022-12-18T18:34:28.528Z,101004.78
2022-12-18T18:36:58.724Z,100996.44
2022-12-18T18:39:26.732Z,101006.97
2022-12-18T18:41:54.714Z,100995.38
2022-12-18T18:44:26.053Z,101001.75
2022-12-18T18:46:54.970Z,101014.25
2022-12-18T18:49:24.144Z,101014.16
2022-12-18T18:51:52.030Z,101021.03
2022-12-18T18:54:20.788Z,101008.50
2022-12-18T18:59:39.835Z,101010.63
2022-12-18T19:02:08.368Z,101007.78
2022-12-18T19:04:36.601Z,101010.53
2022-12-18T19:07:09.548Z,101015.28
2022-12-18T19:09:37.521Z,101019.41
2022-12-18T19:12:23.252Z,101021.63
2022-12-18T19:14:52.378Z,101020.72
2022-12-18T19:17:21.772Z,101025.69
2022-12-18T19:19:53.080Z,101033.28
2022-12-18T19:22:20.998Z,101035.31
2022-12-18T19:24:48.764Z,101024.34
2022-12-18T19:27:16.580Z,101028.31
2022-12-18T19:29:44.300Z,101031.94
2022-12-18T19:32:13.411Z,101026.03
2022-12-18T19:34:41.948Z,101020.91
2022-12-18T19:37:11.042Z,101016.81
2022-12-18T19:39:38.960Z,101012.06
2022-12-18T19:42:06.837Z,101010.97
2022-12-18T19:44:34.611Z,101009.81
2022-12-18T19:47:02.423Z,101002.94
2022-12-18T19:49:32.674Z,101014.44
2022-12-18T19:52:00.481Z,101009.97
2022-12-18T19:54:28.320Z,101008.88
2022-12-18T19:56:56.024Z,101013.53
2022-12-18T19:59:23.963Z,101001.59
2022-12-18T20:01:54.163Z,100998.41
2022-12-18T20:04:22.310Z,100997.38
2022-12-18T20:06:53.208Z,100997.41
2022-12-18T20:09:21.628Z,100997.34
2022-12-18T20:11:50.589Z,101001.19
2022-12-18T20:14:22.655Z,101001.88
2022-12-18T20:16:51.390Z,100999.47
2022-12-18T20:19:19.572Z,100995.50
2022-12-18T20:21:47.402Z,100993.19
2022-12-18T20:24:16.660Z,100995.00
2022-12-18T20:26:44.911Z,100997.69
2022-12-18T20:29:12.743Z,100997.47
2022-12-18T20:31:40.541Z,100995.13
2022-12-18T20:34:08.520Z,100995.16
2022-12-18T20:36:37.684Z,100999.59
2022-12-18T20:39:07.675Z,101005.34
2022-12-18T20:41:39.222Z,101002.63
2022-12-18T20:44:17.742Z,100990.22
2022-12-18T20:46:50.456Z,100999.34
2022-12-18T20:49:18.277Z,101008.84
2022-12-18T20:51:46.866Z,101011.75
2022-12-18T20:54:14.707Z,101019.06
2022-12-18T20:56:43.788Z,101026.53
2022-12-18T20:59:11.798Z,101023.75
2022-12-18T21:01:40.104Z,101030.69
2022-12-18T21:04:14.119Z,101025.56
2022-12-18T21:06:43.840Z,101010.53
2022-12-18T21:09:13.743Z,101007.75
2022-12-18T21:12:00.429Z,101019.91
2022-12-18T21:14:30.757Z,101021.78
2022-12-18T21:17:00.827Z,101024.44
2022-12-18T21:19:29.918Z,101012.03
2022-12-18T21:21:58.601Z,101015.75
2022-12-18T21:24:27.036Z,101018.16
2022-12-18T21:27:01.830Z,101001.59
2022-12-18T21:29:29.824Z,101001.22
2022-12-18T21:31:57.705Z,100996.69
2022-12-18T21:34:27.908Z,100994.81
2022-12-18T21:36:57.219Z,101000.91
2022-12-18T21:39:25.528Z,101009.81
2022-12-18T21:42:11.279Z,101003.09
2022-12-18T21:44:42.036Z,101001.47
2022-12-18T21:47:22.429Z,101003.34
2022-12-18T21:49:51.591Z,101000.44
2022-12-18T21:52:20.000Z,100973.03
2022-12-18T21:54:49.544Z,100985.13
2022-12-18T21:57:18.672Z,100970.25
2022-12-18T21:59:48.816Z,100963.75
2022-12-18T22:02:19.241Z,100960.94
2022-12-18T22:04:47.331Z,100976.00
2022-12-18T22:07:29.234Z,100964.06
2022-12-18T22:09:57.056Z,100958.88
2022-12-18T22:12:43.677Z,100956.59
2022-12-18T22:15:21.441Z,100964.59
2022-12-18T22:17:49.873Z,100955.13
2022-12-18T22:20:17.919Z,100971.34
2022-12-18T22:22:47.947Z,100977.09
2022-12-18T22:25:15.919Z,100983.41
2022-12-18T22:27:43.684Z,100976.06
2022-12-18T22:30:14.408Z,100972.00
2022-12-18T22:32:42.181Z,100972.50
2022-12-18T22:35:15.561Z,100980.50
2022-12-18T22:37:43.751Z,100974.63
2022-12-18T22:40:23.978Z,100969.66
2022-12-18T22:42:53.741Z,100974.09
2022-12-18T22:45:24.635Z,100949.06
2022-12-18T22:47:52.692Z,100953.44
2022-12-18T22:50:20.837Z,100960.03
2022-12-18T22:52:48.575Z,100956.16
2022-12-18T22:55:16.425Z,100961.56
2022-12-18T22:57:48.855Z,100965.38
2022-12-18T23:00:17.635Z,100956.09
2022-12-18T23:02:57.516Z,100954.69
2022-12-18T23:05:28.240Z,100957.97
2022-12-18T23:07:56.160Z,100948.50
2022-12-18T23:10:24.005Z,100957.31
2022-12-18T23:12:51.740Z,100972.19
2022-12-18T23:15:26.022Z,100980.13
2022-12-18T23:17:58.858Z,100973.03
2022-12-18T23:20:27.399Z,100991.88
2022-12-18T23:22:55.205Z,101005.34
2022-12-18T23:25:23.037Z,101011.06
2022-12-18T23:27:50.873Z,101030.06
2022-12-18T23:30:18.921Z,101038.56
2022-12-18T23:32:46.713Z,101050.16
2022-12-18T23:35:16.215Z,101043.47
2022-12-18T23:38:00.199Z,101044.69
2022-12-18T23:40:29.285Z,101037.03
2022-12-18T23:42:57.053Z,101043.84
2022-12-18T23:45:24.881Z,101033.91
2022-12-18T23:47:52.603Z,101022.63
2022-12-18T23:50:27.713Z,101012.19
2022-12-18T23:52:57.704Z,101011.66
2022-12-18T23:55:32.673Z,101023.69
2022-12-18T23:58:00.452Z,101014.78
